sensor_id;sensor_type;location;lat;lon;timestamp;P1;durP1;ratioP1;P2;durP2;ratioP2
15192;SDS011;7697;51.630;7.484;2023-09-07T00:02:32;3.03;;;2.72;;
15192;SDS011;7697;51.630;7.484;2023-09-07T00:07:36;3.20;;;2.83;;
15192;SDS011;7697;51.630;7.484;2023-09-07T00:12:39;3.58;;;3.28;;
15192;SDS011;7697;51.630;7.484;2023-09-07T00:17:41;4.13;;;3.20;;
15192;SDS011;7697;51.630;7.484;2023-09-07T00:22:43;3.30;;;3.00;;
15192;SDS011;7697;51.630;7.484;2023-09-07T00:27:50;5.38;;;2.97;;
15192;SDS011;7697;51.630;7.484;2023-09-07T00:32:52;4.45;;;3.15;;
15192;SDS011;7697;51.630;7.484;2023-09-07T00:37:53;4.07;;;3.67;;
15192;SDS011;7697;51.630;7.484;2023-09-07T00:42:56;4.22;;;3.67;;
15192;SDS011;7697;51.630;7.484;2023-09-07T00:47:59;4.32;;;3.30;;
15192;SDS011;7697;51.630;7.484;2023-09-07T00:53:01;7.25;;;4.03;;
15192;SDS011;7697;51.630;7.484;2023-09-07T00:58:07;4.40;;;3.50;;
15192;SDS011;7697;51.630;7.484;2023-09-07T01:03:11;4.70;;;3.50;;
15192;SDS011;7697;51.630;7.484;2023-09-07T01:08:15;4.53;;;3.85;;
15192;SDS011;7697;51.630;7.484;2023-09-07T01:13:26;4.07;;;3.58;;
15192;SDS011;7697;51.630;7.484;2023-09-07T01:18:28;3.90;;;3.30;;
15192;SDS011;7697;51.630;7.484;2023-09-07T01:23:31;4.32;;;3.58;;
15192;SDS011;7697;51.630;7.484;2023-09-07T01:28:33;3.75;;;3.33;;
15192;SDS011;7697;51.630;7.484;2023-09-07T01:33:35;3.38;;;3.08;;
15192;SDS011;7697;51.630;7.484;2023-09-07T01:38:38;3.42;;;3.13;;
15192;SDS011;7697;51.630;7.484;2023-09-07T01:43:40;4.22;;;3.35;;
15192;SDS011;7697;51.630;7.484;2023-09-07T01:48:42;5.18;;;3.17;;
15192;SDS011;7697;51.630;7.484;2023-09-07T01:53:48;4.45;;;3.15;;
15192;SDS011;7697;51.630;7.484;2023-09-07T01:58:49;4.00;;;3.60;;
15192;SDS011;7697;51.630;7.484;2023-09-07T02:03:51;4.43;;;3.17;;
15192;SDS011;7697;51.630;7.484;2023-09-07T02:08:57;3.50;;;3.20;;
15192;SDS011;7697;51.630;7.484;2023-09-07T02:13:59;4.18;;;3.30;;
15192;SDS011;7697;51.630;7.484;2023-09-07T02:19:02;5.40;;;3.78;;
15192;SDS011;7697;51.630;7.484;2023-09-07T02:24:08;3.72;;;3.40;;
15192;SDS011;7697;51.630;7.484;2023-09-07T02:29:11;4.22;;;3.83;;
15192;SDS011;7697;51.630;7.484;2023-09-07T02:34:12;5.15;;;3.72;;
15192;SDS011;7697;51.630;7.484;2023-09-07T02:39:16;6.30;;;4.03;;
15192;SDS011;7697;51.630;7.484;2023-09-07T02:44:18;5.57;;;4.70;;
15192;SDS011;7697;51.630;7.484;2023-09-07T02:49:20;4.00;;;3.60;;
15192;SDS011;7697;51.630;7.484;2023-09-07T02:54:23;4.68;;;4.18;;
15192;SDS011;7697;51.630;7.484;2023-09-07T02:59:28;4.25;;;3.85;;
15192;SDS011;7697;51.630;7.484;2023-09-07T03:04:29;4.97;;;4.10;;
15192;SDS011;7697;51.630;7.484;2023-09-07T03:09:33;5.55;;;4.45;;
15192;SDS011;7697;51.630;7.484;2023-09-07T03:14:35;5.32;;;4.30;;
15192;SDS011;7697;51.630;7.484;2023-09-07T03:19:36;5.32;;;4.07;;
15192;SDS011;7697;51.630;7.484;2023-09-07T03:24:40;4.80;;;3.80;;
15192;SDS011;7697;51.630;7.484;2023-09-07T03:29:42;4.13;;;3.63;;
15192;SDS011;7697;51.630;7.484;2023-09-07T03:34:49;4.55;;;4.10;;
15192;SDS011;7697;51.630;7.484;2023-09-07T03:39:52;5.30;;;4.50;;
15192;SDS011;7697;51.630;7.484;2023-09-07T03:44:54;5.07;;;4.40;;
15192;SDS011;7697;51.630;7.484;2023-09-07T03:49:56;5.05;;;4.55;;
15192;SDS011;7697;51.630;7.484;2023-09-07T03:55:00;6.22;;;3.92;;
15192;SDS011;7697;51.630;7.484;2023-09-07T04:00:03;4.60;;;4.10;;
15192;SDS011;7697;51.630;7.484;2023-09-07T04:05:08;4.65;;;4.20;;
15192;SDS011;7697;51.630;7.484;2023-09-07T04:10:13;4.65;;;4.15;;
15192;SDS011;7697;51.630;7.484;2023-09-07T04:15:15;5.55;;;4.40;;
15192;SDS011;7697;51.630;7.484;2023-09-07T04:20:17;4.63;;;3.53;;
15192;SDS011;7697;51.630;7.484;2023-09-07T04:25:21;5.25;;;4.35;;
15192;SDS011;7697;51.630;7.484;2023-09-07T04:30:22;3.92;;;3.53;;
15192;SDS011;7697;51.630;7.484;2023-09-07T04:35:26;3.97;;;3.35;;
15192;SDS011;7697;51.630;7.484;2023-09-07T04:40:30;3.67;;;3.30;;
15192;SDS011;7697;51.630;7.484;2023-09-07T04:45:34;4.10;;;3.70;;
15192;SDS011;7697;51.630;7.484;2023-09-07T04:50:35;4.18;;;3.78;;
15192;SDS011;7697;51.630;7.484;2023-09-07T04:55:39;5.85;;;3.42;;
15192;SDS011;7697;51.630;7.484;2023-09-07T05:00:40;4.32;;;3.92;;
15192;SDS011;7697;51.630;7.484;2023-09-07T05:05:42;5.38;;;4.03;;
15192;SDS011;7697;51.630;7.484;2023-09-07T05:10:46;4.15;;;3.63;;
15192;SDS011;7697;51.630;7.484;2023-09-07T05:15:48;5.53;;;3.75;;
15192;SDS011;7697;51.630;7.484;2023-09-07T05:20:50;5.18;;;4.25;;
15192;SDS011;7697;51.630;7.484;2023-09-07T05:25:54;5.40;;;4.32;;
15192;SDS011;7697;51.630;7.484;2023-09-07T05:30:56;5.63;;;4.25;;
15192;SDS011;7697;51.630;7.484;2023-09-07T05:35:58;5.20;;;4.20;;
15192;SDS011;7697;51.630;7.484;2023-09-07T05:41:03;4.90;;;4.25;;
15192;SDS011;7697;51.630;7.484;2023-09-07T05:46:04;4.63;;;4.15;;
15192;SDS011;7697;51.630;7.484;2023-09-07T05:51:06;5.35;;;4.28;;
15192;SDS011;7697;51.630;7.484;2023-09-07T05:56:10;5.03;;;4.38;;
15192;SDS011;7697;51.630;7.484;2023-09-07T06:01:14;4.82;;;4.05;;
15192;SDS011;7697;51.630;7.484;2023-09-07T06:06:21;5.47;;;4.90;;
15192;SDS011;7697;51.630;7.484;2023-09-07T06:11:24;5.53;;;4.25;;
15192;SDS011;7697;51.630;7.484;2023-09-07T06:16:26;5.35;;;4.40;;
15192;SDS011;7697;51.630;7.484;2023-09-07T06:21:27;8.82;;;4.97;;
15192;SDS011;7697;51.630;7.484;2023-09-07T06:26:31;6.43;;;4.43;;
15192;SDS011;7697;51.630;7.484;2023-09-07T06:31:32;5.20;;;4.43;;
15192;SDS011;7697;51.630;7.484;2023-09-07T06:36:34;5.10;;;4.13;;
15192;SDS011;7697;51.630;7.484;2023-09-07T06:41:38;5.20;;;3.90;;
15192;SDS011;7697;51.630;7.484;2023-09-07T06:46:40;4.57;;;4.10;;
15192;SDS011;7697;51.630;7.484;2023-09-07T06:51:42;4.30;;;3.90;;
15192;SDS011;7697;51.630;7.484;2023-09-07T06:56:45;4.57;;;3.78;;
15192;SDS011;7697;51.630;7.484;2023-09-07T07:01:47;6.03;;;4.80;;
15192;SDS011;7697;51.630;7.484;2023-09-07T07:06:49;4.47;;;4.07;;
15192;SDS011;7697;51.630;7.484;2023-09-07T07:11:52;6.10;;;4.70;;
15192;SDS011;7697;51.630;7.484;2023-09-07T07:16:54;4.53;;;4.07;;
15192;SDS011;7697;51.630;7.484;2023-09-07T07:21:56;4.38;;;3.97;;
15192;SDS011;7697;51.630;7.484;2023-09-07T07:26:59;4.40;;;4.00;;
15192;SDS011;7697;51.630;7.484;2023-09-07T07:32:01;5.15;;;4.28;;
15192;SDS011;7697;51.630;7.484;2023-09-07T07:37:05;4.82;;;3.95;;
15192;SDS011;7697;51.630;7.484;2023-09-07T07:42:08;4.93;;;4.43;;
15192;SDS011;7697;51.630;7.484;2023-09-07T07:47:10;6.38;;;4.18;;
15192;SDS011;7697;51.630;7.484;2023-09-07T07:52:12;5.10;;;4.50;;
15192;SDS011;7697;51.630;7.484;2023-09-07T07:57:15;6.03;;;4.30;;
15192;SDS011;7697;51.630;7.484;2023-09-07T08:02:17;7.28;;;3.72;;
15192;SDS011;7697;51.630;7.484;2023-09-07T08:07:18;6.20;;;3.90;;
15192;SDS011;7697;51.630;7.484;2023-09-07T08:12:21;4.55;;;4.00;;
15192;SDS011;7697;51.630;7.484;2023-09-07T08:17:23;6.05;;;4.22;;
15192;SDS011;7697;51.630;7.484;2023-09-07T08:22:27;6.53;;;3.97;;
15192;SDS011;7697;51.630;7.484;2023-09-07T08:27:30;5.82;;;3.72;;
15192;SDS011;7697;51.630;7.484;2023-09-07T08:32:32;4.05;;;3.45;;
15192;SDS011;7697;51.630;7.484;2023-09-07T08:37:34;4.47;;;3.60;;
15192;SDS011;7697;51.630;7.484;2023-09-07T08:42:37;4.50;;;3.22;;
15192;SDS011;7697;51.630;7.484;2023-09-07T08:47:39;3.78;;;3.38;;
15192;SDS011;7697;51.630;7.484;2023-09-07T08:52:41;3.38;;;3.08;;
15192;SDS011;7697;51.630;7.484;2023-09-07T08:57:46;12.60;;;3.60;;
15192;SDS011;7697;51.630;7.484;2023-09-07T09:02:48;4.68;;;3.63;;
15192;SDS011;7697;51.630;7.484;2023-09-07T09:08:00;4.22;;;2.97;;
15192;SDS011;7697;51.630;7.484;2023-09-07T09:13:04;4.32;;;3.40;;
15192;SDS011;7697;51.630;7.484;2023-09-07T09:18:09;4.30;;;3.42;;
15192;SDS011;7697;51.630;7.484;2023-09-07T09:23:12;4.15;;;3.50;;
15192;SDS011;7697;51.630;7.484;2023-09-07T09:28:16;3.78;;;3.38;;
15192;SDS011;7697;51.630;7.484;2023-09-07T09:33:19;3.92;;;3.22;;
15192;SDS011;7697;51.630;7.484;2023-09-07T09:38:21;3.40;;;3.10;;
15192;SDS011;7697;51.630;7.484;2023-09-07T09:43:24;5.95;;;3.42;;
15192;SDS011;7697;51.630;7.484;2023-09-07T09:48:27;3.92;;;3.28;;
15192;SDS011;7697;51.630;7.484;2023-09-07T09:53:29;4.25;;;3.13;;
15192;SDS011;7697;51.630;7.484;2023-09-07T09:58:33;5.88;;;3.00;;
15192;SDS011;7697;51.630;7.484;2023-09-07T10:03:37;3.28;;;2.60;;
15192;SDS011;7697;51.630;7.484;2023-09-07T10:08:52;3.08;;;2.60;;
15192;SDS011;7697;51.630;7.484;2023-09-07T10:14:00;3.20;;;2.90;;
15192;SDS011;7697;51.630;7.484;2023-09-07T10:19:04;5.47;;;2.72;;
15192;SDS011;7697;51.630;7.484;2023-09-07T10:24:24;3.17;;;2.70;;
15192;SDS011;7697;51.630;7.484;2023-09-07T10:29:28;3.47;;;3.17;;
15192;SDS011;7697;51.630;7.484;2023-09-07T10:34:36;3.83;;;3.17;;
15192;SDS011;7697;51.630;7.484;2023-09-07T10:39:39;3.53;;;3.20;;
15192;SDS011;7697;51.630;7.484;2023-09-07T10:44:44;4.13;;;2.83;;
15192;SDS011;7697;51.630;7.484;2023-09-07T10:49:46;3.72;;;2.92;;
15192;SDS011;7697;51.630;7.484;2023-09-07T10:54:55;3.35;;;3.05;;
15192;SDS011;7697;51.630;7.484;2023-09-07T10:59:59;4.95;;;3.10;;
15192;SDS011;7697;51.630;7.484;2023-09-07T11:05:00;3.65;;;3.25;;
15192;SDS011;7697;51.630;7.484;2023-09-07T11:10:05;3.45;;;2.88;;
15192;SDS011;7697;51.630;7.484;2023-09-07T11:15:10;3.35;;;2.78;;
15192;SDS011;7697;51.630;7.484;2023-09-07T11:20:12;3.63;;;3.00;;
15192;SDS011;7697;51.630;7.484;2023-09-07T11:25:14;7.60;;;3.50;;
15192;SDS011;7697;51.630;7.484;2023-09-07T11:30:18;3.45;;;3.15;;
15192;SDS011;7697;51.630;7.484;2023-09-07T11:35:21;5.70;;;3.00;;
15192;SDS011;7697;51.630;7.484;2023-09-07T11:40:22;3.78;;;3.08;;
15192;SDS011;7697;51.630;7.484;2023-09-07T11:45:26;3.75;;;3.28;;
15192;SDS011;7697;51.630;7.484;2023-09-07T11:50:27;3.80;;;3.28;;
15192;SDS011;7697;51.630;7.484;2023-09-07T11:55:32;3.90;;;3.20;;
15192;SDS011;7697;51.630;7.484;2023-09-07T12:00:36;3.55;;;2.83;;
15192;SDS011;7697;51.630;7.484;2023-09-07T12:05:37;3.47;;;3.17;;
15192;SDS011;7697;51.630;7.484;2023-09-07T12:10:41;4.68;;;2.90;;
15192;SDS011;7697;51.630;7.484;2023-09-07T12:15:45;4.20;;;2.72;;
15192;SDS011;7697;51.630;7.484;2023-09-07T12:20:47;3.30;;;3.00;;
15192;SDS011;7697;51.630;7.484;2023-09-07T12:25:49;3.50;;;2.92;;
15192;SDS011;7697;51.630;7.484;2023-09-07T12:30:52;3.47;;;3.17;;
15192;SDS011;7697;51.630;7.484;2023-09-07T12:35:54;3.70;;;3.40;;
15192;SDS011;7697;51.630;7.484;2023-09-07T12:40:56;4.32;;;3.00;;
15192;SDS011;7697;51.630;7.484;2023-09-07T12:45:59;3.35;;;3.05;;
15192;SDS011;7697;51.630;7.484;2023-09-07T12:51:01;4.60;;;2.92;;
15192;SDS011;7697;51.630;7.484;2023-09-07T12:56:03;3.30;;;3.00;;
15192;SDS011;7697;51.630;7.484;2023-09-07T13:01:06;3.63;;;2.80;;
15192;SDS011;7697;51.630;7.484;2023-09-07T13:06:10;3.30;;;3.00;;
15192;SDS011;7697;51.630;7.484;2023-09-07T13:11:11;3.58;;;2.90;;
15192;SDS011;7697;51.630;7.484;2023-09-07T13:16:14;3.33;;;2.70;;
15192;SDS011;7697;51.630;7.484;2023-09-07T13:21:16;2.80;;;2.60;;
15192;SDS011;7697;51.630;7.484;2023-09-07T13:26:18;4.60;;;3.38;;
15192;SDS011;7697;51.630;7.484;2023-09-07T13:31:21;3.95;;;2.80;;
15192;SDS011;7697;51.630;7.484;2023-09-07T13:36:23;2.83;;;2.63;;
15192;SDS011;7697;51.630;7.484;2023-09-07T13:41:25;3.00;;;2.72;;
15192;SDS011;7697;51.630;7.484;2023-09-07T13:46:28;3.80;;;3.00;;
15192;SDS011;7697;51.630;7.484;2023-09-07T13:51:30;2.80;;;2.60;;
15192;SDS011;7697;51.630;7.484;2023-09-07T13:56:38;2.90;;;2.60;;
15192;SDS011;7697;51.630;7.484;2023-09-07T14:01:43;3.60;;;2.60;;
15192;SDS011;7697;51.630;7.484;2023-09-07T14:06:45;3.63;;;2.63;;
15192;SDS011;7697;51.630;7.484;2023-09-07T14:11:47;3.20;;;2.90;;
15192;SDS011;7697;51.630;7.484;2023-09-07T14:16:50;3.75;;;2.58;;
15192;SDS011;7697;51.630;7.484;2023-09-07T14:21:58;3.15;;;2.75;;
15192;SDS011;7697;51.630;7.484;2023-09-07T14:26:59;5.43;;;2.67;;
15192;SDS011;7697;51.630;7.484;2023-09-07T14:32:03;4.28;;;2.63;;
15192;SDS011;7697;51.630;7.484;2023-09-07T14:37:05;3.75;;;2.50;;
15192;SDS011;7697;51.630;7.484;2023-09-07T14:42:07;4.38;;;2.60;;
15192;SDS011;7697;51.630;7.484;2023-09-07T14:47:15;3.10;;;2.40;;
15192;SDS011;7697;51.630;7.484;2023-09-07T14:52:17;3.03;;;2.80;;
15192;SDS011;7697;51.630;7.484;2023-09-07T14:57:19;2.63;;;2.42;;
15192;SDS011;7697;51.630;7.484;2023-09-07T15:02:23;3.65;;;2.85;;
15192;SDS011;7697;51.630;7.484;2023-09-07T15:07:24;2.60;;;2.22;;
15192;SDS011;7697;51.630;7.484;2023-09-07T15:12:26;3.50;;;2.83;;
15192;SDS011;7697;51.630;7.484;2023-09-07T15:17:29;2.88;;;2.67;;
15192;SDS011;7697;51.630;7.484;2023-09-07T15:22:31;3.22;;;2.88;;
15192;SDS011;7697;51.630;7.484;2023-09-07T15:27:34;3.22;;;2.92;;
15192;SDS011;7697;51.630;7.484;2023-09-07T15:32:37;2.88;;;2.67;;
15192;SDS011;7697;51.630;7.484;2023-09-07T15:37:39;3.67;;;3.10;;
15192;SDS011;7697;51.630;7.484;2023-09-07T15:42:41;2.95;;;2.53;;
15192;SDS011;7697;51.630;7.484;2023-09-07T15:47:45;4.75;;;2.95;;
15192;SDS011;7697;51.630;7.484;2023-09-07T15:52:47;3.20;;;2.90;;
15192;SDS011;7697;51.630;7.484;2023-09-07T15:57:50;3.47;;;2.80;;
15192;SDS011;7697;51.630;7.484;2023-09-07T16:02:53;3.53;;;2.78;;
15192;SDS011;7697;51.630;7.484;2023-09-07T16:07:55;3.22;;;2.92;;
15192;SDS011;7697;51.630;7.484;2023-09-07T16:12:57;4.28;;;3.03;;
15192;SDS011;7697;51.630;7.484;2023-09-07T16:18:00;4.63;;;3.05;;
15192;SDS011;7697;51.630;7.484;2023-09-07T16:23:02;3.17;;;2.88;;
15192;SDS011;7697;51.630;7.484;2023-09-07T16:28:04;2.95;;;2.65;;
15192;SDS011;7697;51.630;7.484;2023-09-07T16:33:08;3.03;;;2.72;;
15192;SDS011;7697;51.630;7.484;2023-09-07T16:38:09;3.83;;;3.20;;
15192;SDS011;7697;51.630;7.484;2023-09-07T16:43:11;3.67;;;2.85;;
15192;SDS011;7697;51.630;7.484;2023-09-07T16:48:16;3.00;;;2.60;;
15192;SDS011;7697;51.630;7.484;2023-09-07T16:53:18;3.03;;;2.72;;
15192;SDS011;7697;51.630;7.484;2023-09-07T16:58:20;6.00;;;3.15;;
15192;SDS011;7697;51.630;7.484;2023-09-07T17:03:25;3.85;;;3.03;;
15192;SDS011;7697;51.630;7.484;2023-09-07T17:08:27;3.20;;;2.83;;
15192;SDS011;7697;51.630;7.484;2023-09-07T17:13:29;2.70;;;2.45;;
15192;SDS011;7697;51.630;7.484;2023-09-07T17:18:32;4.82;;;2.58;;
15192;SDS011;7697;51.630;7.484;2023-09-07T17:23:34;2.85;;;2.60;;
15192;SDS011;7697;51.630;7.484;2023-09-07T17:28:36;3.20;;;2.90;;
15192;SDS011;7697;51.630;7.484;2023-09-07T17:33:39;2.80;;;2.60;;
15192;SDS011;7697;51.630;7.484;2023-09-07T17:38:41;3.35;;;2.78;;
15192;SDS011;7697;51.630;7.484;2023-09-07T17:43:44;3.40;;;2.85;;
15192;SDS011;7697;51.630;7.484;2023-09-07T17:48:48;2.65;;;2.45;;
15192;SDS011;7697;51.630;7.484;2023-09-07T17:53:50;3.30;;;3.00;;
15192;SDS011;7697;51.630;7.484;2023-09-07T17:58:55;3.05;;;2.72;;
15192;SDS011;7697;51.630;7.484;2023-09-07T18:04:00;2.80;;;2.50;;
15192;SDS011;7697;51.630;7.484;2023-09-07T18:09:03;2.58;;;2.38;;
15192;SDS011;7697;51.630;7.484;2023-09-07T18:14:06;4.07;;;2.53;;
15192;SDS011;7697;51.630;7.484;2023-09-07T18:19:10;4.07;;;2.90;;
15192;SDS011;7697;51.630;7.484;2023-09-07T18:24:14;3.30;;;3.00;;
15192;SDS011;7697;51.630;7.484;2023-09-07T18:29:16;2.80;;;2.55;;
15192;SDS011;7697;51.630;7.484;2023-09-07T18:34:20;2.60;;;2.40;;
15192;SDS011;7697;51.630;7.484;2023-09-07T18:39:22;2.58;;;2.38;;
15192;SDS011;7697;51.630;7.484;2023-09-07T18:44:24;3.20;;;2.33;;
15192;SDS011;7697;51.630;7.484;2023-09-07T18:49:29;2.30;;;2.10;;
15192;SDS011;7697;51.630;7.484;2023-09-07T18:54:31;3.42;;;2.95;;
15192;SDS011;7697;51.630;7.484;2023-09-07T18:59:33;4.40;;;3.03;;
15192;SDS011;7697;51.630;7.484;2023-09-07T19:09:59;3.03;;;2.72;;
15192;SDS011;7697;51.630;7.484;2023-09-07T19:15:01;4.97;;;2.40;;
15192;SDS011;7697;51.630;7.484;2023-09-07T19:20:07;4.53;;;2.80;;
15192;SDS011;7697;51.630;7.484;2023-09-07T19:25:09;3.22;;;2.67;;
15192;SDS011;7697;51.630;7.484;2023-09-07T19:30:11;2.80;;;2.58;;
15192;SDS011;7697;51.630;7.484;2023-09-07T19:35:14;3.38;;;3.08;;
15192;SDS011;7697;51.630;7.484;2023-09-07T19:40:16;3.40;;;3.10;;
15192;SDS011;7697;51.630;7.484;2023-09-07T19:45:18;3.97;;;3.03;;
15192;SDS011;7697;51.630;7.484;2023-09-07T19:50:21;3.63;;;3.30;;
15192;SDS011;7697;51.630;7.484;2023-09-07T19:55:23;3.17;;;2.88;;
15192;SDS011;7697;51.630;7.484;2023-09-07T20:00:25;3.40;;;2.90;;
15192;SDS011;7697;51.630;7.484;2023-09-07T20:05:28;4.47;;;2.90;;
15192;SDS011;7697;51.630;7.484;2023-09-07T20:10:30;3.10;;;2.80;;
15192;SDS011;7697;51.630;7.484;2023-09-07T20:15:32;2.90;;;2.63;;
15192;SDS011;7697;51.630;7.484;2023-09-07T20:20:35;3.28;;;2.97;;
15192;SDS011;7697;51.630;7.484;2023-09-07T20:25:37;3.30;;;2.80;;
15192;SDS011;7697;51.630;7.484;2023-09-07T20:30:39;2.85;;;2.55;;
15192;SDS011;7697;51.630;7.484;2023-09-07T20:35:42;4.68;;;2.90;;
15192;SDS011;7697;51.630;7.484;2023-09-07T20:40:44;3.92;;;3.30;;
15192;SDS011;7697;51.630;7.484;2023-09-07T20:45:46;3.67;;;2.97;;
15192;SDS011;7697;51.630;7.484;2023-09-07T20:50:49;4.85;;;2.80;;
15192;SDS011;7697;51.630;7.484;2023-09-07T20:55:51;2.83;;;2.63;;
15192;SDS011;7697;51.630;7.484;2023-09-07T21:00:53;3.90;;;3.08;;
15192;SDS011;7697;51.630;7.484;2023-09-07T21:05:58;3.47;;;3.17;;
15192;SDS011;7697;51.630;7.484;2023-09-07T21:10:59;3.35;;;3.05;;
15192;SDS011;7697;51.630;7.484;2023-09-07T21:16:01;4.20;;;3.30;;
15192;SDS011;7697;51.630;7.484;2023-09-07T21:21:05;3.10;;;2.80;;
15192;SDS011;7697;51.630;7.484;2023-09-07T21:26:06;3.85;;;3.20;;
15192;SDS011;7697;51.630;7.484;2023-09-07T21:31:09;3.33;;;2.85;;
15192;SDS011;7697;51.630;7.484;2023-09-07T21:36:13;4.40;;;3.40;;
15192;SDS011;7697;51.630;7.484;2023-09-07T21:41:15;5.18;;;3.17;;
15192;SDS011;7697;51.630;7.484;2023-09-07T21:46:19;5.00;;;3.53;;
15192;SDS011;7697;51.630;7.484;2023-09-07T21:51:26;3.30;;;3.00;;
15192;SDS011;7697;51.630;7.484;2023-09-07T21:56:28;3.28;;;2.63;;
15192;SDS011;7697;51.630;7.484;2023-09-07T22:01:30;4.97;;;3.30;;
15192;SDS011;7697;51.630;7.484;2023-09-07T22:06:33;3.33;;;2.65;;
15192;SDS011;7697;51.630;7.484;2023-09-07T22:11:35;4.13;;;3.10;;
15192;SDS011;7697;51.630;7.484;2023-09-07T22:16:37;3.80;;;3.30;;
15192;SDS011;7697;51.630;7.484;2023-09-07T22:21:40;3.35;;;3.05;;
15192;SDS011;7697;51.630;7.484;2023-09-07T22:26:42;4.18;;;3.05;;
15192;SDS011;7697;51.630;7.484;2023-09-07T22:31:44;4.68;;;2.83;;
15192;SDS011;7697;51.630;7.484;2023-09-07T22:36:47;3.25;;;2.60;;
15192;SDS011;7697;51.630;7.484;2023-09-07T22:41:49;4.47;;;2.92;;
15192;SDS011;7697;51.630;7.484;2023-09-07T22:46:51;3.33;;;3.03;;
15192;SDS011;7697;51.630;7.484;2023-09-07T22:51:55;3.28;;;2.97;;
15192;SDS011;7697;51.630;7.484;2023-09-07T22:56:57;3.42;;;3.03;;
15192;SDS011;7697;51.630;7.484;2023-09-07T23:01:59;3.63;;;3.20;;
15192;SDS011;7697;51.630;7.484;2023-09-07T23:07:02;5.18;;;3.50;;
15192;SDS011;7697;51.630;7.484;2023-09-07T23:12:04;3.97;;;3.60;;
15192;SDS011;7697;51.630;7.484;2023-09-07T23:17:06;3.67;;;3.38;;
15192;SDS011;7697;51.630;7.484;2023-09-07T23:22:10;3.85;;;3.40;;
15192;SDS011;7697;51.630;7.484;2023-09-07T23:27:11;4.82;;;3.50;;
15192;SDS011;7697;51.630;7.484;2023-09-07T23:32:14;4.38;;;2.95;;
15192;SDS011;7697;51.630;7.484;2023-09-07T23:37:18;3.40;;;3.10;;
15192;SDS011;7697;51.630;7.484;2023-09-07T23:42:19;3.88;;;3.20;;
15192;SDS011;7697;51.630;7.484;2023-09-07T23:47:21;5.60;;;3.17;;
15192;SDS011;7697;51.630;7.484;2023-09-07T23:52:25;4.70;;;2.92;;
15192;SDS011;7697;51.630;7.484;2023-09-07T23:57:26;3.85;;;3.45;;
